sensor_id;sensor_type;location;lat;lon;timestamp;pressure;altitude;pressure_sealevel;temperature;humidity
64711;BME280;51139;45.626;6.850;2023-09-08T00:02:03;82672.38;;;18.34;55.12
64711;BME280;51139;45.626;6.850;2023-09-08T00:04:28;82679.38;;;18.40;55.28
64711;BME280;51139;45.626;6.850;2023-09-08T00:06:54;82663.69;;;17.88;47.15
64711;BME280;51139;45.626;6.850;2023-09-08T00:09:19;82671.59;;;18.56;45.18
64711;BME280;51139;45.626;6.850;2023-09-08T00:11:45;82666.78;;;19.02;40.79
64711;BME280;51139;45.626;6.850;2023-09-08T00:14:10;82667.91;;;19.10;40.60
64711;BME280;51139;45.626;6.850;2023-09-08T00:16:35;82670.84;;;18.43;42.18
64711;BME280;51139;45.626;6.850;2023-09-08T00:19:02;82671.22;;;18.61;43.22
64711;BME280;51139;45.626;6.850;2023-09-08T00:21:27;82669.59;;;18.68;42.70
64711;BME280;51139;45.626;6.850;2023-09-08T00:23:53;82662.22;;;18.69;46.53
64711;BME280;51139;45.626;6.850;2023-09-08T00:26:19;82661.88;;;18.74;47.42
64711;BME280;51139;45.626;6.850;2023-09-08T00:28:45;82668.53;;;18.49;47.73
64711;BME280;51139;45.626;6.850;2023-09-08T00:31:10;82660.00;;;18.89;47.05
64711;BME280;51139;45.626;6.850;2023-09-08T00:33:36;82658.81;;;19.53;45.54
64711;BME280;51139;45.626;6.850;2023-09-08T00:36:02;82666.94;;;19.30;45.33
64711;BME280;51139;45.626;6.850;2023-09-08T00:38:28;82660.00;;;19.38;44.90
64711;BME280;51139;45.626;6.850;2023-09-08T00:40:53;82654.50;;;18.99;46.54
64711;BME280;51139;45.626;6.850;2023-09-08T00:43:19;82655.47;;;18.67;48.75
64711;BME280;51139;45.626;6.850;2023-09-08T00:45:45;82664.56;;;17.69;52.43
64711;BME280;51139;45.626;6.850;2023-09-08T00:48:11;82665.34;;;17.60;52.82
64711;BME280;51139;45.626;6.850;2023-09-08T00:50:38;82662.00;;;18.41;45.15
64711;BME280;51139;45.626;6.850;2023-09-08T00:53:05;82663.31;;;17.82;47.68
64711;BME280;51139;45.626;6.850;2023-09-08T00:55:31;82661.78;;;18.36;44.12
64711;BME280;51139;45.626;6.850;2023-09-08T00:57:57;82659.09;;;18.25;44.61
64711;BME280;51139;45.626;6.850;2023-09-08T01:00:26;82654.19;;;18.09;41.84
64711;BME280;51139;45.626;6.850;2023-09-08T01:02:51;82661.75;;;18.48;42.77
64711;BME280;51139;45.626;6.850;2023-09-08T01:05:17;82653.72;;;18.36;42.77
64711;BME280;51139;45.626;6.850;2023-09-08T01:07:44;82644.47;;;18.87;41.95
64711;BME280;51139;45.626;6.850;2023-09-08T01:10:10;82651.72;;;18.73;42.47
64711;BME280;51139;45.626;6.850;2023-09-08T01:12:36;82645.63;;;17.89;44.76
64711;BME280;51139;45.626;6.850;2023-09-08T01:15:02;82646.59;;;18.77;43.40
64711;BME280;51139;45.626;6.850;2023-09-08T01:17:29;82645.09;;;18.62;43.24
64711;BME280;51139;45.626;6.850;2023-09-08T01:20:00;82640.31;;;18.72;43.42
64711;BME280;51139;45.626;6.850;2023-09-08T01:25:24;82633.97;;;17.84;47.52
64711;BME280;51139;45.626;6.850;2023-09-08T01:27:51;82639.78;;;17.80;46.50
64711;BME280;51139;45.626;6.850;2023-09-08T01:30:17;82642.19;;;18.46;44.24
64711;BME280;51139;45.626;6.850;2023-09-08T01:32:44;82644.28;;;18.23;46.42
64711;BME280;51139;45.626;6.850;2023-09-08T01:35:10;82641.13;;;18.15;46.17
64711;BME280;51139;45.626;6.850;2023-09-08T01:37:39;82634.38;;;18.38;44.64
64711;BME280;51139;45.626;6.850;2023-09-08T01:40:05;82630.38;;;17.91;46.35
64711;BME280;51139;45.626;6.850;2023-09-08T01:42:31;82623.91;;;17.27;46.54
64711;BME280;51139;45.626;6.850;2023-09-08T01:44:56;82633.72;;;17.92;44.11
64711;BME280;51139;45.626;6.850;2023-09-08T01:47:22;82629.44;;;17.41;44.70
64711;BME280;51139;45.626;6.850;2023-09-08T01:49:47;82631.44;;;17.53;43.36
64711;BME280;51139;45.626;6.850;2023-09-08T01:52:12;82626.13;;;17.76;43.08
64711;BME280;51139;45.626;6.850;2023-09-08T01:54:38;82627.59;;;18.01;42.75
64711;BME280;51139;45.626;6.850;2023-09-08T01:57:03;82624.63;;;17.73;43.63
64711;BME280;51139;45.626;6.850;2023-09-08T01:59:29;82624.06;;;17.75;43.62
64711;BME280;51139;45.626;6.850;2023-09-08T02:01:54;82628.16;;;18.00;43.64
64711;BME280;51139;45.626;6.850;2023-09-08T02:04:20;82628.25;;;17.90;44.16
64711;BME280;51139;45.626;6.850;2023-09-08T02:06:45;82620.44;;;17.94;43.42
64711;BME280;51139;45.626;6.850;2023-09-08T02:09:14;82622.44;;;18.77;42.87
64711;BME280;51139;45.626;6.850;2023-09-08T02:11:39;82625.22;;;17.72;45.71
64711;BME280;51139;45.626;6.850;2023-09-08T02:14:05;82614.34;;;17.58;46.84
64711;BME280;51139;45.626;6.850;2023-09-08T02:16:30;82616.28;;;17.45;46.19
64711;BME280;51139;45.626;6.850;2023-09-08T02:18:56;82619.34;;;18.21;44.65
64711;BME280;51139;45.626;6.850;2023-09-08T02:21:21;82613.91;;;17.73;46.48
64711;BME280;51139;45.626;6.850;2023-09-08T02:23:47;82618.03;;;17.41;48.01
64711;BME280;51139;45.626;6.850;2023-09-08T02:26:12;82617.75;;;17.25;48.91
64711;BME280;51139;45.626;6.850;2023-09-08T02:28:38;82619.91;;;16.95;49.17
64711;BME280;51139;45.626;6.850;2023-09-08T02:31:03;82623.13;;;17.03;48.61
64711;BME280;51139;45.626;6.850;2023-09-08T02:33:28;82627.97;;;16.73;48.53
64711;BME280;51139;45.626;6.850;2023-09-08T02:35:54;82625.91;;;16.40;49.94
64711;BME280;51139;45.626;6.850;2023-09-08T02:38:19;82622.50;;;16.49;50.19
64711;BME280;51139;45.626;6.850;2023-09-08T02:40:45;82625.50;;;16.33;50.25
64711;BME280;51139;45.626;6.850;2023-09-08T02:43:10;82624.09;;;16.32;49.83
64711;BME280;51139;45.626;6.850;2023-09-08T02:45:35;82624.16;;;16.54;48.57
64711;BME280;51139;45.626;6.850;2023-09-08T02:48:01;82622.91;;;16.67;48.59
64711;BME280;51139;45.626;6.850;2023-09-08T02:50:27;82624.59;;;16.94;48.60
64711;BME280;51139;45.626;6.850;2023-09-08T02:52:52;82617.00;;;16.69;48.09
64711;BME280;51139;45.626;6.850;2023-09-08T02:55:17;82619.13;;;16.17;48.59
64711;BME280;51139;45.626;6.850;2023-09-08T02:57:43;82623.84;;;16.28;48.90
64711;BME280;51139;45.626;6.850;2023-09-08T03:00:08;82623.53;;;16.12;48.88
64711;BME280;51139;45.626;6.850;2023-09-08T03:02:34;82625.28;;;15.98;47.06
64711;BME280;51139;45.626;6.850;2023-09-08T03:05:00;82622.38;;;16.15;46.33
64711;BME280;51139;45.626;6.850;2023-09-08T03:07:26;82623.91;;;16.18;45.36
64711;BME280;51139;45.626;6.850;2023-09-08T03:09:52;82614.78;;;16.65;44.16
64711;BME280;51139;45.626;6.850;2023-09-08T03:12:18;82623.69;;;16.36;44.41
64711;BME280;51139;45.626;6.850;2023-09-08T03:14:43;82616.00;;;16.52;44.38
64711;BME280;51139;45.626;6.850;2023-09-08T03:17:10;82625.59;;;16.45;44.86
64711;BME280;51139;45.626;6.850;2023-09-08T03:19:36;82609.75;;;16.81;44.10
64711;BME280;51139;45.626;6.850;2023-09-08T03:22:02;82621.56;;;17.21;43.26
64711;BME280;51139;45.626;6.850;2023-09-08T03:24:27;82620.75;;;16.54;44.92
64711;BME280;51139;45.626;6.850;2023-09-08T03:26:53;82615.31;;;17.29;43.19
64711;BME280;51139;45.626;6.850;2023-09-08T03:29:18;82617.34;;;17.52;42.48
64711;BME280;51139;45.626;6.850;2023-09-08T03:31:44;82612.72;;;16.75;44.81
64711;BME280;51139;45.626;6.850;2023-09-08T03:34:09;82614.84;;;16.55;45.16
64711;BME280;51139;45.626;6.850;2023-09-08T03:36:34;82621.19;;;16.28;45.41
64711;BME280;51139;45.626;6.850;2023-09-08T03:39:03;82618.03;;;16.42;45.54
64711;BME280;51139;45.626;6.850;2023-09-08T03:41:28;82618.59;;;16.40;45.90
64711;BME280;51139;45.626;6.850;2023-09-08T03:43:54;82618.66;;;16.52;46.24
64711;BME280;51139;45.626;6.850;2023-09-08T03:46:20;82613.19;;;16.50;46.03
64711;BME280;51139;45.626;6.850;2023-09-08T03:48:45;82610.31;;;16.36;46.64
64711;BME280;51139;45.626;6.850;2023-09-08T03:51:11;82609.75;;;16.38;46.62
64711;BME280;51139;45.626;6.850;2023-09-08T03:53:36;82604.28;;;16.57;45.85
64711;BME280;51139;45.626;6.850;2023-09-08T03:56:02;82610.19;;;16.56;45.92
64711;BME280;51139;45.626;6.850;2023-09-08T03:58:27;82608.06;;;16.32;46.29
64711;BME280;51139;45.626;6.850;2023-09-08T04:00:54;82609.16;;;16.17;45.93
64711;BME280;51139;45.626;6.850;2023-09-08T04:03:19;82608.63;;;16.41;46.33
64711;BME280;51139;45.626;6.850;2023-09-08T04:05:45;82611.75;;;16.27;46.97
64711;BME280;51139;45.626;6.850;2023-09-08T04:08:10;82612.34;;;15.84;47.52
64711;BME280;51139;45.626;6.850;2023-09-08T04:10:35;82605.31;;;15.99;47.23
64711;BME280;51139;45.626;6.850;2023-09-08T04:13:01;82602.28;;;16.14;46.95
64711;BME280;51139;45.626;6.850;2023-09-08T04:15:26;82602.94;;;16.25;46.71
64711;BME280;51139;45.626;6.850;2023-09-08T04:17:52;82599.28;;;16.20;46.06
64711;BME280;51139;45.626;6.850;2023-09-08T04:20:17;82600.75;;;16.11;46.18
64711;BME280;51139;45.626;6.850;2023-09-08T04:22:43;82611.09;;;15.85;46.12
64711;BME280;51139;45.626;6.850;2023-09-08T04:25:09;82600.91;;;16.03;46.35
64711;BME280;51139;45.626;6.850;2023-09-08T04:27:35;82598.25;;;16.03;45.98
64711;BME280;51139;45.626;6.850;2023-09-08T04:30:02;82601.09;;;15.96;45.83
64711;BME280;51139;45.626;6.850;2023-09-08T04:32:28;82610.13;;;15.90;46.37
64711;BME280;51139;45.626;6.850;2023-09-08T04:34:54;82595.72;;;15.64;46.41
64711;BME280;51139;45.626;6.850;2023-09-08T04:37:20;82608.72;;;15.80;46.40
64711;BME280;51139;45.626;6.850;2023-09-08T04:39:46;82604.66;;;15.79;46.11
64711;BME280;51139;45.626;6.850;2023-09-08T04:42:11;82606.63;;;15.88;45.97
64711;BME280;51139;45.626;6.850;2023-09-08T04:44:38;82610.13;;;15.81;46.52
64711;BME280;51139;45.626;6.850;2023-09-08T04:47:04;82600.31;;;15.73;46.31
64711;BME280;51139;45.626;6.850;2023-09-08T04:49:29;82604.28;;;15.63;46.60
64711;BME280;51139;45.626;6.850;2023-09-08T04:51:55;82607.34;;;15.69;46.64
64711;BME280;51139;45.626;6.850;2023-09-08T04:54:20;82607.97;;;15.57;46.64
64711;BME280;51139;45.626;6.850;2023-09-08T04:56:47;82612.75;;;15.59;47.24
64711;BME280;51139;45.626;6.850;2023-09-08T04:59:12;82607.56;;;15.51;46.94
64711;BME280;51139;45.626;6.850;2023-09-08T05:01:38;82608.56;;;15.46;46.66
64711;BME280;51139;45.626;6.850;2023-09-08T05:04:05;82610.06;;;15.59;47.20
64711;BME280;51139;45.626;6.850;2023-09-08T05:06:30;82609.53;;;15.51;47.31
64711;BME280;51139;45.626;6.850;2023-09-08T05:08:56;82612.00;;;15.68;47.26
64711;BME280;51139;45.626;6.850;2023-09-08T05:11:21;82609.47;;;15.70;46.94
64711;BME280;51139;45.626;6.850;2023-09-08T05:13:47;82618.97;;;15.83;46.49
64711;BME280;51139;45.626;6.850;2023-09-08T05:16:12;82619.56;;;15.72;47.02
64711;BME280;51139;45.626;6.850;2023-09-08T05:18:38;82622.78;;;15.80;46.94
64711;BME280;51139;45.626;6.850;2023-09-08T05:21:04;82626.41;;;15.85;48.33
64711;BME280;51139;45.626;6.850;2023-09-08T05:23:30;82627.56;;;15.72;47.82
64711;BME280;51139;45.626;6.850;2023-09-08T05:25:55;82627.19;;;15.66;48.64
64711;BME280;51139;45.626;6.850;2023-09-08T05:28:21;82627.25;;;15.87;47.90
64711;BME280;51139;45.626;6.850;2023-09-08T05:30:46;82630.66;;;15.78;48.27
64711;BME280;51139;45.626;6.850;2023-09-08T05:33:12;82626.84;;;15.81;48.86
64711;BME280;51139;45.626;6.850;2023-09-08T05:35:37;82629.44;;;15.59;49.75
64711;BME280;51139;45.626;6.850;2023-09-08T05:38:03;82632.59;;;15.36;49.54
64711;BME280;51139;45.626;6.850;2023-09-08T05:40:28;82638.91;;;15.41;49.94
64711;BME280;51139;45.626;6.850;2023-09-08T05:42:54;82638.63;;;15.46;50.24
64711;BME280;51139;45.626;6.850;2023-09-08T05:45:19;82642.97;;;15.42;50.48
64711;BME280;51139;45.626;6.850;2023-09-08T05:47:45;82645.25;;;15.36;50.70
64711;BME280;51139;45.626;6.850;2023-09-08T05:50:10;82640.88;;;15.40;50.76
64711;BME280;51139;45.626;6.850;2023-09-08T05:52:36;82640.03;;;15.38;51.14
64711;BME280;51139;45.626;6.850;2023-09-08T05:55:02;82641.13;;;15.54;50.33
64711;BME280;51139;45.626;6.850;2023-09-08T05:57:27;82640.44;;;15.54;51.92
64711;BME280;51139;45.626;6.850;2023-09-08T05:59:52;82638.75;;;15.49;53.72
64711;BME280;51139;45.626;6.850;2023-09-08T06:02:18;82647.59;;;15.51;54.67
64711;BME280;51139;45.626;6.850;2023-09-08T06:04:43;82651.53;;;15.60;55.40
64711;BME280;51139;45.626;6.850;2023-09-08T06:07:09;82638.66;;;15.78;54.37
64711;BME280;51139;45.626;6.850;2023-09-08T06:09:34;82644.28;;;15.92;52.42
64711;BME280;51139;45.626;6.850;2023-09-08T06:12:00;82647.78;;;15.85;50.13
64711;BME280;51139;45.626;6.850;2023-09-08T06:14:25;82654.81;;;15.80;49.98
64711;BME280;51139;45.626;6.850;2023-09-08T06:16:51;82645.25;;;15.97;48.79
64711;BME280;51139;45.626;6.850;2023-09-08T06:19:16;82649.13;;;16.05;47.80
64711;BME280;51139;45.626;6.850;2023-09-08T06:21:41;82647.94;;;16.50;45.73
64711;BME280;51139;45.626;6.850;2023-09-08T06:24:07;82644.25;;;16.77;44.88
64711;BME280;51139;45.626;6.850;2023-09-08T06:26:33;82649.88;;;17.25;43.60
64711;BME280;51139;45.626;6.850;2023-09-08T06:28:58;82647.41;;;17.50;42.32
64711;BME280;51139;45.626;6.850;2023-09-08T06:31:23;82643.28;;;17.83;41.69
64711;BME280;51139;45.626;6.850;2023-09-08T06:33:50;82641.03;;;18.25;41.49
64711;BME280;51139;45.626;6.850;2023-09-08T06:36:18;82646.03;;;18.31;41.63
64711;BME280;51139;45.626;6.850;2023-09-08T06:38:43;82645.81;;;18.15;42.38
64711;BME280;51139;45.626;6.850;2023-09-08T06:41:10;82650.22;;;18.10;42.54
64711;BME280;51139;45.626;6.850;2023-09-08T06:43:36;82650.00;;;18.65;42.59
64711;BME280;51139;45.626;6.850;2023-09-08T06:46:02;82651.03;;;18.72;42.60
64711;BME280;51139;45.626;6.850;2023-09-08T06:48:27;82644.09;;;19.17;41.76
64711;BME280;51139;45.626;6.850;2023-09-08T06:50:53;82645.53;;;19.44;41.32
64711;BME280;51139;45.626;6.850;2023-09-08T06:53:19;82644.91;;;20.09;39.66
64711;BME280;51139;45.626;6.850;2023-09-08T06:55:44;82652.22;;;21.16;38.79
64711;BME280;51139;45.626;6.850;2023-09-08T06:58:10;82644.53;;;21.24;41.22
64711;BME280;51139;45.626;6.850;2023-09-08T07:00:35;82645.47;;;21.59;38.79
64711;BME280;51139;45.626;6.850;2023-09-08T07:03:01;82638.75;;;22.04;39.39
64711;BME280;51139;45.626;6.850;2023-09-08T07:05:27;82649.50;;;21.88;41.59
64711;BME280;51139;45.626;6.850;2023-09-08T07:07:53;82646.69;;;22.46;40.33
64711;BME280;51139;45.626;6.850;2023-09-08T07:10:19;82638.13;;;22.36;40.95
64711;BME280;51139;45.626;6.850;2023-09-08T07:12:45;82635.34;;;22.34;39.64
64711;BME280;51139;45.626;6.850;2023-09-08T07:15:10;82641.72;;;22.10;41.60
64711;BME280;51139;45.626;6.850;2023-09-08T07:17:36;82647.84;;;22.11;40.82
64711;BME280;51139;45.626;6.850;2023-09-08T07:20:02;82637.69;;;21.95;38.36
64711;BME280;51139;45.626;6.850;2023-09-08T07:22:28;82643.66;;;22.70;38.58
64711;BME280;51139;45.626;6.850;2023-09-08T07:24:53;82653.78;;;22.39;37.11
64711;BME280;51139;45.626;6.850;2023-09-08T07:27:19;82648.50;;;23.22;36.96
64711;BME280;51139;45.626;6.850;2023-09-08T07:29:45;82652.00;;;21.84;39.10
64711;BME280;51139;45.626;6.850;2023-09-08T07:32:13;82651.41;;;22.15;35.27
64711;BME280;51139;45.626;6.850;2023-09-08T07:34:38;82648.81;;;22.34;37.03
64711;BME280;51139;45.626;6.850;2023-09-08T07:37:03;82647.13;;;22.56;36.84
64711;BME280;51139;45.626;6.850;2023-09-08T07:39:29;82653.69;;;23.50;32.50
64711;BME280;51139;45.626;6.850;2023-09-08T07:41:55;82641.25;;;23.95;33.46
64711;BME280;51139;45.626;6.850;2023-09-08T07:44:21;82653.91;;;23.38;33.98
64711;BME280;51139;45.626;6.850;2023-09-08T07:46:47;82650.75;;;23.78;33.61
64711;BME280;51139;45.626;6.850;2023-09-08T07:49:14;82658.94;;;23.45;34.82
64711;BME280;51139;45.626;6.850;2023-09-08T07:51:40;82652.44;;;24.21;34.30
64711;BME280;51139;45.626;6.850;2023-09-08T07:54:05;82651.50;;;24.14;32.66
64711;BME280;51139;45.626;6.850;2023-09-08T07:56:31;82654.56;;;23.54;37.06
64711;BME280;51139;45.626;6.850;2023-09-08T07:58:57;82651.19;;;24.06;36.01
64711;BME280;51139;45.626;6.850;2023-09-08T08:01:23;82661.63;;;23.80;34.60
64711;BME280;51139;45.626;6.850;2023-09-08T08:03:48;82656.25;;;23.98;33.85
64711;BME280;51139;45.626;6.850;2023-09-08T08:06:14;82656.47;;;24.38;34.14
64711;BME280;51139;45.626;6.850;2023-09-08T08:08:39;82667.66;;;24.48;35.08
64711;BME280;51139;45.626;6.850;2023-09-08T08:11:13;82660.44;;;25.12;32.95
64711;BME280;51139;45.626;6.850;2023-09-08T08:13:39;82657.94;;;25.18;34.03
64711;BME280;51139;45.626;6.850;2023-09-08T08:16:04;82660.66;;;24.98;33.38
64711;BME280;51139;45.626;6.850;2023-09-08T08:18:30;82662.97;;;24.31;35.81
64711;BME280;51139;45.626;6.850;2023-09-08T08:20:55;82656.28;;;23.13;36.54
64711;BME280;51139;45.626;6.850;2023-09-08T08:23:21;82651.88;;;24.25;34.98
64711;BME280;51139;45.626;6.850;2023-09-08T08:25:46;82655.53;;;24.50;35.58
64711;BME280;51139;45.626;6.850;2023-09-08T08:28:11;82657.75;;;24.55;33.85
64711;BME280;51139;45.626;6.850;2023-09-08T08:30:37;82658.13;;;24.11;34.56
64711;BME280;51139;45.626;6.850;2023-09-08T08:33:02;82659.22;;;23.36;34.80
64711;BME280;51139;45.626;6.850;2023-09-08T08:35:29;82662.72;;;22.90;35.88
64711;BME280;51139;45.626;6.850;2023-09-08T08:37:57;82654.84;;;24.13;35.92
64711;BME280;51139;45.626;6.850;2023-09-08T08:40:22;82665.44;;;24.99;34.67
64711;BME280;51139;45.626;6.850;2023-09-08T08:42:54;82658.25;;;25.67;33.10
64711;BME280;51139;45.626;6.850;2023-09-08T08:45:22;82660.16;;;24.83;35.08
64711;BME280;51139;45.626;6.850;2023-09-08T08:47:48;82649.38;;;24.67;34.27
64711;BME280;51139;45.626;6.850;2023-09-08T08:50:15;82656.97;;;23.98;37.48
64711;BME280;51139;45.626;6.850;2023-09-08T08:52:42;82650.16;;;23.45;38.69
64711;BME280;51139;45.626;6.850;2023-09-08T08:55:08;82655.38;;;23.75;35.89
64711;BME280;51139;45.626;6.850;2023-09-08T08:57:36;82652.13;;;24.31;37.05
64711;BME280;51139;45.626;6.850;2023-09-08T09:00:04;82656.94;;;21.60;41.18
64711;BME280;51139;45.626;6.850;2023-09-08T09:02:36;82648.69;;;23.10;38.20
64711;BME280;51139;45.626;6.850;2023-09-08T09:05:01;82643.63;;;23.34;36.60
64711;BME280;51139;45.626;6.850;2023-09-08T09:07:27;82638.22;;;22.38;41.70
64711;BME280;51139;45.626;6.850;2023-09-08T09:09:53;82643.28;;;23.42;40.60
64711;BME280;51139;45.626;6.850;2023-09-08T09:12:19;82639.13;;;24.09;37.81
64711;BME280;51139;45.626;6.850;2023-09-08T09:14:47;82641.59;;;23.35;40.71
64711;BME280;51139;45.626;6.850;2023-09-08T09:17:13;82639.41;;;23.47;41.94
64711;BME280;51139;45.626;6.850;2023-09-08T09:19:39;82639.53;;;23.17;41.91
64711;BME280;51139;45.626;6.850;2023-09-08T09:22:05;82638.66;;;23.28;42.22
64711;BME280;51139;45.626;6.850;2023-09-08T09:24:39;82643.03;;;23.03;43.27
64711;BME280;51139;45.626;6.850;2023-09-08T09:27:12;82636.41;;;22.91;43.87
64711;BME280;51139;45.626;6.850;2023-09-08T09:29:45;82638.22;;;23.18;40.27
64711;BME280;51139;45.626;6.850;2023-09-08T09:32:15;82642.16;;;23.15;41.48
64711;BME280;51139;45.626;6.850;2023-09-08T09:34:49;82637.81;;;23.24;46.31
64711;BME280;51139;45.626;6.850;2023-09-08T09:37:16;82638.31;;;23.88;48.47
64711;BME280;51139;45.626;6.850;2023-09-08T09:39:41;82645.25;;;23.57;42.99
64711;BME280;51139;45.626;6.850;2023-09-08T09:42:07;82642.88;;;23.50;44.14
64711;BME280;51139;45.626;6.850;2023-09-08T09:44:32;82639.00;;;23.37;42.76
64711;BME280;51139;45.626;6.850;2023-09-08T09:47:00;82646.22;;;24.55;41.17
64711;BME280;51139;45.626;6.850;2023-09-08T09:49:25;82634.78;;;24.02;43.87
64711;BME280;51139;45.626;6.850;2023-09-08T09:51:58;82644.81;;;23.81;42.69
64711;BME280;51139;45.626;6.850;2023-09-08T09:54:23;82642.50;;;23.92;43.07
64711;BME280;51139;45.626;6.850;2023-09-08T09:56:49;82643.53;;;24.00;41.68
64711;BME280;51139;45.626;6.850;2023-09-08T09:59:17;82635.50;;;24.21;39.72
64711;BME280;51139;45.626;6.850;2023-09-08T10:01:43;82643.06;;;24.06;42.61
64711;BME280;51139;45.626;6.850;2023-09-08T10:04:09;82635.44;;;24.00;42.59
64711;BME280;51139;45.626;6.850;2023-09-08T10:06:38;82639.56;;;24.76;39.79
64711;BME280;51139;45.626;6.850;2023-09-08T10:09:05;82636.94;;;24.42;40.87
64711;BME280;51139;45.626;6.850;2023-09-08T10:11:45;82625.81;;;24.33;41.70
64711;BME280;51139;45.626;6.850;2023-09-08T10:14:12;82633.66;;;23.73;42.54
64711;BME280;51139;45.626;6.850;2023-09-08T10:16:39;82630.44;;;24.49;41.44
64711;BME280;51139;45.626;6.850;2023-09-08T10:19:08;82627.06;;;23.94;43.82
64711;BME280;51139;45.626;6.850;2023-09-08T10:21:40;82633.59;;;23.37;45.96
64711;BME280;51139;45.626;6.850;2023-09-08T10:24:15;82634.50;;;23.59;44.57
64711;BME280;51139;45.626;6.850;2023-09-08T10:26:44;82628.03;;;23.85;42.78
64711;BME280;51139;45.626;6.850;2023-09-08T10:29:12;82634.78;;;24.02;40.57
64711;BME280;51139;45.626;6.850;2023-09-08T10:31:38;82633.56;;;24.05;44.48
64711;BME280;51139;45.626;6.850;2023-09-08T10:34:04;82625.66;;;24.47;38.15
64711;BME280;51139;45.626;6.850;2023-09-08T10:36:30;82623.84;;;24.34;42.32
64711;BME280;51139;45.626;6.850;2023-09-08T10:44:47;82610.41;;;24.56;40.07
64711;BME280;51139;45.626;6.850;2023-09-08T10:47:39;82608.19;;;24.51;40.26
64711;BME280;51139;45.626;6.850;2023-09-08T10:50:07;82607.34;;;24.46;41.19
64711;BME280;51139;45.626;6.850;2023-09-08T10:52:34;82604.84;;;24.52;42.09
64711;BME280;51139;45.626;6.850;2023-09-08T10:55:00;82607.09;;;24.58;41.39
64711;BME280;51139;45.626;6.850;2023-09-08T10:57:27;82610.53;;;24.40;43.86
64711;BME280;51139;45.626;6.850;2023-09-08T11:00:00;82605.50;;;24.14;41.73
64711;BME280;51139;45.626;6.850;2023-09-08T11:05:10;82599.84;;;24.26;42.39
64711;BME280;51139;45.626;6.850;2023-09-08T11:07:37;82601.09;;;24.23;43.45
64711;BME280;51139;45.626;6.850;2023-09-08T11:10:04;82608.66;;;24.27;39.11
64711;BME280;51139;45.626;6.850;2023-09-08T11:12:30;82607.69;;;24.56;40.65
64711;BME280;51139;45.626;6.850;2023-09-08T11:14:55;82604.97;;;24.74;39.98
64711;BME280;51139;45.626;6.850;2023-09-08T11:17:26;82605.84;;;24.79;40.50
64711;BME280;51139;45.626;6.850;2023-09-08T11:19:51;82607.81;;;24.04;43.00
64711;BME280;51139;45.626;6.850;2023-09-08T11:22:17;82604.16;;;24.52;44.69
64711;BME280;51139;45.626;6.850;2023-09-08T11:24:44;82590.47;;;24.47;43.29
64711;BME280;51139;45.626;6.850;2023-09-08T11:27:11;82594.34;;;24.42;43.07
64711;BME280;51139;45.626;6.850;2023-09-08T11:29:36;82595.59;;;24.39;43.02
64711;BME280;51139;45.626;6.850;2023-09-08T11:32:06;82600.34;;;24.97;40.58
64711;BME280;51139;45.626;6.850;2023-09-08T11:34:34;82602.59;;;25.23;40.54
64711;BME280;51139;45.626;6.850;2023-09-08T11:36:59;82597.44;;;25.11;42.09
64711;BME280;51139;45.626;6.850;2023-09-08T11:39:25;82598.63;;;25.46;40.36
64711;BME280;51139;45.626;6.850;2023-09-08T11:41:52;82598.31;;;24.39;40.21
64711;BME280;51139;45.626;6.850;2023-09-08T11:44:18;82595.03;;;24.43;40.13
64711;BME280;51139;45.626;6.850;2023-09-08T11:46:44;82596.72;;;24.52;38.34
64711;BME280;51139;45.626;6.850;2023-09-08T11:49:10;82596.72;;;24.52;43.20
64711;BME280;51139;45.626;6.850;2023-09-08T11:51:36;82596.75;;;24.90;41.53
64711;BME280;51139;45.626;6.850;2023-09-08T11:54:03;82596.88;;;25.15;38.29
64711;BME280;51139;45.626;6.850;2023-09-08T11:56:29;82595.84;;;24.66;39.17
64711;BME280;51139;45.626;6.850;2023-09-08T11:58:55;82597.22;;;25.05;35.90
64711;BME280;51139;45.626;6.850;2023-09-08T12:01:21;82606.59;;;25.62;36.05
64711;BME280;51139;45.626;6.850;2023-09-08T12:03:54;82605.00;;;25.55;35.79
64711;BME280;51139;45.626;6.850;2023-09-08T12:06:23;82600.38;;;25.80;37.56
64711;BME280;51139;45.626;6.850;2023-09-08T12:08:48;82593.09;;;25.64;35.65
64711;BME280;51139;45.626;6.850;2023-09-08T12:11:14;82586.63;;;25.74;38.98
64711;BME280;51139;45.626;6.850;2023-09-08T12:13:39;82585.97;;;24.92;37.03
64711;BME280;51139;45.626;6.850;2023-09-08T12:16:18;82586.72;;;25.56;37.54
64711;BME280;51139;45.626;6.850;2023-09-08T12:18:44;82588.91;;;25.82;38.90
64711;BME280;51139;45.626;6.850;2023-09-08T12:21:11;82591.69;;;25.84;36.08
64711;BME280;51139;45.626;6.850;2023-09-08T12:23:47;82582.41;;;26.13;35.99
64711;BME280;51139;45.626;6.850;2023-09-08T12:26:14;82583.75;;;26.12;34.94
64711;BME280;51139;45.626;6.850;2023-09-08T12:28:41;82584.69;;;25.76;35.27
64711;BME280;51139;45.626;6.850;2023-09-08T12:31:07;82581.03;;;25.90;37.83
64711;BME280;51139;45.626;6.850;2023-09-08T12:33:33;82588.66;;;25.33;38.89
64711;BME280;51139;45.626;6.850;2023-09-08T12:35:58;82582.78;;;25.18;37.38
64711;BME280;51139;45.626;6.850;2023-09-08T12:38:30;82591.81;;;25.45;36.26
64711;BME280;51139;45.626;6.850;2023-09-08T12:40:56;82581.84;;;25.72;37.16
64711;BME280;51139;45.626;6.850;2023-09-08T12:43:21;82584.78;;;26.03;35.82
64711;BME280;51139;45.626;6.850;2023-09-08T12:45:47;82583.59;;;25.86;38.19
64711;BME280;51139;45.626;6.850;2023-09-08T12:48:12;82580.25;;;25.87;35.03
64711;BME280;51139;45.626;6.850;2023-09-08T12:50:37;82577.03;;;25.71;33.33
64711;BME280;51139;45.626;6.850;2023-09-08T12:53:03;82572.50;;;26.00;34.67
64711;BME280;51139;45.626;6.850;2023-09-08T12:55:29;82577.25;;;26.21;36.39
64711;BME280;51139;45.626;6.850;2023-09-08T12:57:54;82572.81;;;26.10;34.24
64711;BME280;51139;45.626;6.850;2023-09-08T13:00:23;82563.28;;;25.87;35.02
64711;BME280;51139;45.626;6.850;2023-09-08T13:02:49;82561.63;;;26.00;38.28
64711;BME280;51139;45.626;6.850;2023-09-08T13:05:15;82569.22;;;26.03;36.33
64711;BME280;51139;45.626;6.850;2023-09-08T13:07:40;82560.19;;;26.19;37.62